Time;durP1;ratioP1;P1;durP2;ratioP2;P2;SDS_P1;SDS_P2;PMS_P1;PMS_P2;Temp;Humidity;BMP_temperature;BMP_pressure;BME280_temperature;BME280_humidity;BME280_pressure;Samples;Min_cycle;Max_cycle;Signal;HPM_P1;HPM_P2
2021/01/12 00:00:47;;;;;;;76.63;41.70;;;-1.80;89.40;;;;;;5092324;28;20201;-81
2021/01/12 00:03:14;;;;;;;73.97;38.73;;;-1.70;89.40;;;;;;5082343;28;20224;-81
2021/01/12 00:05:43;;;;;;;72.43;39.13;;;-1.80;89.20;;;;;;5091530;28;20270;-81
2021/01/12 00:08:14;;;;;;;72.93;39.57;;;-1.80;89.10;;;;;;5092607;27;20200;-81
2021/01/12 00:10:42;;;;;;;69.83;39.37;;;-1.70;88.80;;;;;;5086860;27;20215;-79
2021/01/12 00:13:10;;;;;;;74.07;39.10;;;-1.70;88.60;;;;;;5094210;28;20207;-80
2021/01/12 00:15:38;;;;;;;71.50;39.27;;;-1.80;88.60;;;;;;5086849;28;20479;-82
2021/01/12 00:18:06;;;;;;;72.00;39.10;;;-1.80;88.70;;;;;;5079436;28;20551;-81
2021/01/12 00:20:34;;;;;;;77.40;40.47;;;-1.90;88.80;;;;;;5094522;28;20305;-82
2021/01/12 00:23:01;;;;;;;80.33;40.73;;;-1.90;88.90;;;;;;5098406;28;20243;-80
2021/01/12 00:25:29;;;;;;;69.93;37.43;;;-1.90;88.80;;;;;;5113133;28;20296;-81
2021/01/12 00:27:56;;;;;;;68.43;37.07;;;-1.90;88.90;;;;;;5113479;28;20441;-80
2021/01/12 00:30:24;;;;;;;70.97;39.00;;;-1.90;88.70;;;;;;5093171;28;20204;-82
2021/01/12 00:32:51;;;;;;;70.10;39.47;;;-1.90;88.80;;;;;;5096001;28;20199;-81
2021/01/12 00:35:19;;;;;;;69.77;37.70;;;-1.90;88.90;;;;;;5095345;27;20208;-81
2021/01/12 00:37:47;;;;;;;68.67;36.83;;;-2.00;88.70;;;;;;5080570;28;20208;-81
2021/01/12 00:40:15;;;;;;;67.10;36.97;;;-2.00;88.70;;;;;;5095412;28;20212;-82
2021/01/12 00:42:43;;;;;;;69.87;37.97;;;-1.90;88.70;;;;;;5091789;28;20292;-81
2021/01/12 00:45:11;;;;;;;74.27;38.77;;;-2.00;88.70;;;;;;5092725;28;20200;-82
2021/01/12 00:47:39;;;;;;;68.17;39.13;;;-2.00;88.70;;;;;;5109542;27;20457;-80
2021/01/12 00:50:07;;;;;;;72.80;40.07;;;-2.00;88.70;;;;;;5088127;28;20581;-80
2021/01/12 00:52:36;;;;;;;74.30;39.17;;;-2.00;88.70;;;;;;5085902;28;20403;-81
2021/01/12 00:55:03;;;;;;;71.07;39.60;;;-2.00;88.90;;;;;;5097803;27;20271;-80
2021/01/12 00:57:31;;;;;;;71.87;40.30;;;-2.10;89.10;;;;;;5101132;28;20219;-81
2021/01/12 00:59:58;;;;;;;77.97;38.93;;;-2.10;89.10;;;;;;5105091;28;20203;-80
2021/01/12 01:02:26;;;;;;;70.10;37.30;;;-2.10;88.90;;;;;;5091811;28;20223;-82
2021/01/12 01:04:53;;;;;;;71.80;39.33;;;-2.10;88.90;;;;;;5083868;28;20224;-82
2021/01/12 01:07:21;;;;;;;72.67;38.30;;;-2.20;88.90;;;;;;5093680;28;20242;-81
2021/01/12 01:09:49;;;;;;;70.60;39.37;;;-2.20;89.00;;;;;;5100002;27;20538;-81
2021/01/12 01:12:17;;;;;;;72.87;38.17;;;-2.20;89.00;;;;;;5091039;28;20201;-81
2021/01/12 01:14:45;;;;;;;71.17;37.97;;;-2.20;89.10;;;;;;5101219;28;20199;-82
2021/01/12 01:17:12;;;;;;;69.80;38.70;;;-2.20;89.20;;;;;;5087916;27;20207;-81
2021/01/12 01:19:40;;;;;;;71.43;38.33;;;-2.20;89.10;;;;;;5078077;28;20299;-79
2021/01/12 01:22:09;;;;;;;71.20;39.37;;;-2.30;89.20;;;;;;5101274;28;20696;-82
2021/01/12 01:24:36;;;;;;;72.77;38.70;;;-2.30;89.10;;;;;;5082526;27;20220;-81
2021/01/12 01:27:06;;;;;;;72.40;39.63;;;-2.20;89.30;;;;;;5074942;28;20204;-81
2021/01/12 01:29:34;;;;;;;75.30;40.20;;;-2.40;89.30;;;;;;5085752;27;20214;-80
2021/01/12 01:32:02;;;;;;;69.63;36.97;;;-2.40;89.40;;;;;;5075890;28;20204;-80
2021/01/12 01:34:29;;;;;;;75.47;38.90;;;-2.40;89.30;;;;;;5093745;28;20224;-79
2021/01/12 01:37:01;;;;;;;74.87;40.73;;;-2.30;89.50;;;;;;5100688;27;20195;-82
2021/01/12 01:39:28;;;;;;;74.17;37.73;;;-2.20;89.50;;;;;;5098362;27;20564;-79
2021/01/12 01:41:59;;;;;;;71.77;39.43;;;-2.40;89.40;;;;;;5088592;28;20333;-81
2021/01/12 01:44:28;;;;;;;70.73;37.40;;;-2.40;89.20;;;;;;5090749;28;20236;-81
2021/01/12 01:46:55;;;;;;;71.87;39.67;;;-2.40;89.10;;;;;;5093377;28;20430;-81
2021/01/12 01:49:23;;;;;;;70.33;38.20;;;-2.30;89.00;;;;;;5108512;28;20208;-80
2021/01/12 01:51:53;;;;;;;67.20;37.30;;;-2.30;89.00;;;;;;5119131;27;20196;-78
2021/01/12 01:54:21;;;;;;;71.33;37.27;;;-2.30;89.10;;;;;;5121020;28;20186;-80
2021/01/12 01:56:48;;;;;;;64.03;34.70;;;-2.30;88.90;;;;;;5095975;28;20199;-81
2021/01/12 01:59:16;;;;;;;73.20;37.53;;;-2.30;88.90;;;;;;5093812;27;20195;-79
2021/01/12 02:01:45;;;;;;;72.13;37.03;;;-2.30;88.70;;;;;;5094912;27;20590;-80
2021/01/12 02:04:22;;;;;;;64.80;37.90;;;-2.40;88.60;;;;;;5095799;28;20219;-81
2021/01/12 02:06:51;;;;;;;64.47;34.00;;;-2.40;88.80;;;;;;5091626;28;20559;-80
2021/01/12 02:09:25;;;;;;;73.47;38.40;;;-2.40;88.90;;;;;;5095640;27;20208;-80
2021/01/12 02:11:56;;;;;;;70.13;38.13;;;-2.40;88.90;;;;;;5094664;28;20211;-83
2021/01/12 02:14:28;;;;;;;68.50;37.67;;;-2.50;89.20;;;;;;5093823;28;20204;-82
2021/01/12 02:16:57;;;;;;;69.03;35.30;;;-2.50;89.20;;;;;;5080557;28;20215;-80
2021/01/12 02:19:27;;;;;;;73.23;35.40;;;-2.50;89.30;;;;;;5099402;27;20208;-80
2021/01/12 02:22:00;;;;;;;62.07;35.07;;;-2.50;89.30;;;;;;5099645;27;20196;-79
2021/01/12 02:24:29;;;;;;;64.63;36.73;;;-2.50;89.30;;;;;;5102107;28;20259;-81
2021/01/12 02:26:57;;;;;;;69.37;38.23;;;-2.50;89.30;;;;;;5109736;27;20189;-81
2021/01/12 02:29:24;;;;;;;71.27;37.37;;;-2.50;89.20;;;;;;5111249;27;20212;-81
2021/01/12 02:31:53;;;;;;;67.87;36.40;;;-2.50;89.20;;;;;;5109503;28;20200;-81
2021/01/12 02:34:23;;;;;;;69.40;36.00;;;-2.50;89.10;;;;;;5110372;28;20200;-80
2021/01/12 02:36:52;;;;;;;62.67;34.97;;;-2.50;89.00;;;;;;5094087;28;20229;-81
2021/01/12 02:39:19;;;;;;;61.47;34.57;;;-2.50;88.90;;;;;;5109738;27;20457;-81
2021/01/12 02:41:48;;;;;;;62.00;35.40;;;-2.30;88.80;;;;;;5110445;28;20196;-80
2021/01/12 02:44:21;;;;;;;62.70;34.40;;;-2.40;88.70;;;;;;5110067;28;20238;-82
2021/01/12 02:46:49;;;;;;;61.23;34.70;;;-2.40;88.70;;;;;;5113877;27;20192;-82
2021/01/12 02:49:17;;;;;;;62.10;33.17;;;-2.50;88.50;;;;;;5105582;28;20204;-81
2021/01/12 02:51:44;;;;;;;64.93;34.50;;;-2.60;88.60;;;;;;5101749;28;20192;-80
2021/01/12 02:54:12;;;;;;;62.07;34.30;;;-2.50;88.80;;;;;;5109463;28;20224;-81
2021/01/12 02:56:39;;;;;;;57.60;33.90;;;-2.30;88.60;;;;;;5106672;28;20693;-79
2021/01/12 02:59:07;;;;;;;61.60;33.47;;;-2.40;88.30;;;;;;5092008;28;20204;-80
2021/01/12 03:01:35;;;;;;;61.93;33.13;;;-2.20;88.20;;;;;;5094413;27;20219;-80
2021/01/12 03:04:03;;;;;;;61.17;34.17;;;-2.30;88.10;;;;;;5089384;27;20562;-79
2021/01/12 03:06:31;;;;;;;64.77;33.60;;;-2.40;87.90;;;;;;5090897;27;20212;-81
2021/01/12 03:08:59;;;;;;;54.93;31.20;;;-2.40;88.00;;;;;;5088548;27;20387;-80
2021/01/12 03:11:26;;;;;;;61.77;33.30;;;-2.40;88.10;;;;;;5089310;27;20730;-80
2021/01/12 03:13:54;;;;;;;58.70;33.40;;;-2.40;88.10;;;;;;5089951;28;20518;-80
2021/01/12 03:16:22;;;;;;;58.03;32.20;;;-2.40;88.00;;;;;;5097988;27;20317;-81
2021/01/12 03:18:50;;;;;;;60.63;32.50;;;-2.40;88.00;;;;;;5114114;28;20218;-80
2021/01/12 03:21:18;;;;;;;61.07;32.60;;;-2.30;88.00;;;;;;5115550;27;20521;-80
2021/01/12 03:23:45;;;;;;;55.13;30.17;;;-2.30;87.90;;;;;;5106309;27;20247;-80
2021/01/12 03:26:13;;;;;;;63.10;31.53;;;-2.40;87.70;;;;;;5092089;27;20713;-82
2021/01/12 03:28:40;;;;;;;56.90;30.97;;;-2.40;87.80;;;;;;5103738;28;20420;-79
2021/01/12 03:31:08;;;;;;;59.97;32.60;;;-2.40;87.80;;;;;;5090046;28;20546;-82
2021/01/12 03:33:36;;;;;;;55.93;31.57;;;-2.40;87.80;;;;;;5099150;27;20260;-81
2021/01/12 03:36:04;;;;;;;55.30;31.10;;;-2.40;87.70;;;;;;5092814;27;20196;-81
2021/01/12 03:38:32;;;;;;;57.10;31.60;;;-2.50;87.90;;;;;;5106051;27;20196;-80
2021/01/12 03:41:00;;;;;;;55.57;31.73;;;-2.40;88.10;;;;;;5108477;27;20443;-81
2021/01/12 03:43:27;;;;;;;58.43;32.03;;;-2.50;87.80;;;;;;5102899;28;20199;-81
2021/01/12 03:45:54;;;;;;;62.23;33.87;;;-2.50;87.90;;;;;;5114571;28;20195;-79
2021/01/12 03:48:22;;;;;;;61.50;31.93;;;-2.50;87.90;;;;;;5111654;27;20188;-79
2021/01/12 03:50:50;;;;;;;59.80;32.43;;;-2.50;87.90;;;;;;5105798;28;20194;-81
2021/01/12 03:53:18;;;;;;;57.10;30.97;;;-2.50;88.00;;;;;;5116406;27;20200;-80
2021/01/12 03:55:45;;;;;;;61.57;32.40;;;-2.50;87.80;;;;;;5113773;27;20654;-80
2021/01/12 03:58:13;;;;;;;60.80;32.57;;;-2.50;88.00;;;;;;5103765;28;20184;-81
2021/01/12 04:00:40;;;;;;;60.73;31.43;;;-2.50;88.10;;;;;;5113538;28;20598;-82
2021/01/12 04:03:08;;;;;;;58.23;32.43;;;-2.50;88.00;;;;;;5078311;27;20204;-81
2021/01/12 04:05:35;;;;;;;60.73;32.63;;;-2.50;87.90;;;;;;5085959;28;20256;-81
2021/01/12 04:08:07;;;;;;;61.30;32.30;;;-2.50;87.90;;;;;;5085746;27;20211;-80
2021/01/12 04:10:35;;;;;;;57.93;32.77;;;-2.60;87.90;;;;;;5094527;28;20570;-79
2021/01/12 04:13:03;;;;;;;56.93;29.87;;;-2.60;88.00;;;;;;5079793;28;20670;-79
2021/01/12 04:15:31;;;;;;;56.00;29.63;;;-2.50;88.10;;;;;;5087933;27;20286;-80
2021/01/12 04:17:59;;;;;;;62.57;34.10;;;-2.50;87.90;;;;;;5089165;28;20192;-79
2021/01/12 04:20:26;;;;;;;63.13;31.63;;;-2.40;87.70;;;;;;5085745;28;20192;-80
2021/01/12 04:22:53;;;;;;;60.47;31.67;;;-2.40;87.80;;;;;;5076901;28;20200;-81
2021/01/12 04:25:22;;;;;;;59.27;33.07;;;-2.30;87.80;;;;;;5085743;28;20713;-80
2021/01/12 04:27:49;;;;;;;63.20;32.93;;;-2.30;87.60;;;;;;5093058;27;20226;-81
2021/01/12 04:30:17;;;;;;;54.47;31.10;;;-2.30;87.60;;;;;;5079265;27;20710;-81
2021/01/12 04:32:45;;;;;;;62.73;30.70;;;-2.30;87.60;;;;;;5075104;28;20451;-79
2021/01/12 04:35:12;;;;;;;56.93;31.33;;;-2.30;87.60;;;;;;5086595;27;20196;-81
2021/01/12 04:37:40;;;;;;;62.70;32.80;;;-2.30;87.50;;;;;;5071904;28;20303;-81
2021/01/12 04:40:09;;;;;;;61.80;32.13;;;-2.30;87.70;;;;;;5085538;28;20258;-79
2021/01/12 04:42:37;;;;;;;59.47;31.67;;;-2.30;87.40;;;;;;5079438;27;20833;-80
2021/01/12 04:45:07;;;;;;;53.57;30.90;;;-2.30;87.60;;;;;;5099782;27;20556;-80
2021/01/12 04:47:34;;;;;;;59.67;31.53;;;-2.20;87.70;;;;;;5114082;27;20440;-80
2021/01/12 04:50:03;;;;;;;64.77;33.27;;;-2.20;87.50;;;;;;5106838;27;20234;-81
2021/01/12 04:52:42;;;;;;;61.70;32.80;;;-2.30;87.50;;;;;;5077614;28;20518;-80
2021/01/12 04:55:11;;;;;;;61.70;30.97;;;-2.20;87.70;;;;;;5090896;28;20247;-80
2021/01/12 04:57:43;;;;;;;61.23;32.73;;;-2.20;87.60;;;;;;5095466;28;20205;-81
2021/01/12 05:00:13;;;;;;;55.03;30.83;;;-2.10;87.40;;;;;;5088226;28;20199;-81
2021/01/12 05:02:41;;;;;;;58.47;31.27;;;-2.10;87.50;;;;;;5081115;28;20199;-79
2021/01/12 05:05:11;;;;;;;57.67;30.77;;;-2.10;87.40;;;;;;5087240;28;20406;-81
2021/01/12 05:07:38;;;;;;;57.47;29.73;;;-2.00;87.50;;;;;;5087540;27;20320;-80
2021/01/12 05:10:11;;;;;;;53.30;29.83;;;-2.00;87.40;;;;;;5077940;28;20215;-80
2021/01/12 05:12:41;;;;;;;55.30;31.30;;;-2.00;87.20;;;;;;5081095;28;20316;-81
2021/01/12 05:15:11;;;;;;;52.00;29.23;;;-2.00;87.20;;;;;;5086702;27;20781;-79
2021/01/12 05:17:40;;;;;;;58.73;31.23;;;-1.90;87.30;;;;;;5093438;27;20316;-79
2021/01/12 05:20:12;;;;;;;55.73;31.23;;;-2.00;87.20;;;;;;5101040;28;20216;-79
2021/01/12 05:22:41;;;;;;;58.47;31.47;;;-2.00;87.30;;;;;;5086327;27;20192;-80
2021/01/12 05:25:20;;;;;;;58.60;32.63;;;-2.00;87.30;;;;;;5098089;27;20306;-80
2021/01/12 05:27:54;;;;;;;57.77;31.67;;;-2.00;87.30;;;;;;5082369;27;21395;-81
2021/01/12 05:30:25;;;;;;;60.40;30.73;;;-2.00;87.30;;;;;;5080922;28;20255;-79
2021/01/12 05:32:54;;;;;;;55.17;31.80;;;-2.00;87.40;;;;;;5077846;28;20587;-81
2021/01/12 05:35:25;;;;;;;60.67;32.17;;;-2.00;87.30;;;;;;5076987;28;20360;-78
2021/01/12 05:38:00;;;;;;;57.63;32.50;;;-2.00;87.40;;;;;;5079677;28;20719;-80
2021/01/12 05:40:31;;;;;;;56.43;31.07;;;-2.00;87.40;;;;;;5078216;28;20261;-80
2021/01/12 05:43:09;;;;;;;58.00;32.03;;;-2.00;87.30;;;;;;5076662;27;20198;-80
2021/01/12 05:45:39;;;;;;;60.37;31.80;;;-2.00;87.30;;;;;;5084377;28;20228;-81
2021/01/12 05:48:09;;;;;;;58.37;32.27;;;-2.00;87.30;;;;;;5077069;28;20465;-81
2021/01/12 05:50:37;;;;;;;65.57;33.43;;;-1.90;87.40;;;;;;5075454;27;21000;-79
2021/01/12 05:53:06;;;;;;;65.33;32.33;;;-1.90;87.20;;;;;;5078807;28;20208;-82
2021/01/12 05:55:37;;;;;;;59.03;30.67;;;-1.90;87.30;;;;;;5077509;28;20204;-81
2021/01/12 05:58:13;;;;;;;58.40;32.57;;;-1.90;87.30;;;;;;5082384;28;20378;-81
2021/01/12 06:00:43;;;;;;;61.80;32.23;;;-1.90;87.30;;;;;;5071577;28;20690;-81
2021/01/12 06:03:15;;;;;;;58.87;32.07;;;-1.90;87.20;;;;;;5077791;28;20575;-81
2021/01/12 06:05:49;;;;;;;59.37;32.20;;;-1.90;87.20;;;;;;5070833;28;20248;-81
2021/01/12 06:08:17;;;;;;;57.57;30.80;;;-1.80;87.10;;;;;;5079578;28;20215;-81
2021/01/12 06:10:46;;;;;;;61.57;32.20;;;-1.80;87.00;;;;;;5091496;28;20204;-81
2021/01/12 06:13:15;;;;;;;54.77;31.00;;;-1.80;87.10;;;;;;5108462;28;20182;-82
2021/01/12 06:15:45;;;;;;;64.47;32.67;;;-1.70;87.00;;;;;;5102393;28;20189;-79
2021/01/12 06:18:14;;;;;;;55.00;31.97;;;-1.70;87.10;;;;;;5093295;28;20200;-80
2021/01/12 06:20:57;;;;;;;61.60;31.30;;;-1.70;86.90;;;;;;5080965;28;20204;-80
2021/01/12 06:23:34;;;;;;;58.83;31.73;;;-1.70;87.10;;;;;;5083469;28;20204;-83
2021/01/12 06:26:02;;;;;;;57.03;32.53;;;-1.70;86.90;;;;;;5077772;28;20597;-79
2021/01/12 06:28:31;;;;;;;61.07;31.00;;;-1.70;86.90;;;;;;5079176;28;21016;-78
2021/01/12 06:31:00;;;;;;;60.03;32.50;;;-1.80;87.00;;;;;;5070212;28;20208;-80
2021/01/12 06:33:28;;;;;;;58.57;31.20;;;-1.80;87.10;;;;;;5076291;28;20265;-81
2021/01/12 06:36:00;;;;;;;55.47;29.97;;;-1.80;87.10;;;;;;5064208;28;20203;-81
2021/01/12 06:38:30;;;;;;;61.67;31.47;;;-1.80;87.10;;;;;;5078669;27;20649;-81
2021/01/12 06:40:58;;;;;;;61.67;30.80;;;-1.80;87.20;;;;;;5080644;28;20204;-81
2021/01/12 06:43:28;;;;;;;56.70;31.57;;;-1.80;87.20;;;;;;5078444;28;20205;-82
2021/01/12 06:45:56;;;;;;;56.20;31.00;;;-1.70;87.30;;;;;;5092958;27;20520;-79
2021/01/12 06:48:27;;;;;;;58.00;31.23;;;-1.80;87.30;;;;;;5081822;27;20746;-82
2021/01/12 06:50:55;;;;;;;57.57;30.47;;;-1.80;87.00;;;;;;5076229;27;20791;-81
2021/01/12 06:53:23;;;;;;;59.33;33.57;;;-1.70;87.20;;;;;;5081746;27;20196;-81
2021/01/12 06:55:51;;;;;;;59.03;32.20;;;-1.80;87.00;;;;;;5075801;27;20405;-81
2021/01/12 06:58:29;;;;;;;56.30;32.43;;;-1.70;87.00;;;;;;5076812;28;20211;-81
2021/01/12 07:01:00;;;;;;;65.60;33.37;;;-1.70;87.00;;;;;;5067357;28;21674;-81
2021/01/12 07:03:30;;;;;;;59.67;32.07;;;-1.70;86.90;;;;;;5078383;28;20811;-80
2021/01/12 07:06:03;;;;;;;59.30;31.60;;;-1.60;87.00;;;;;;5082237;27;20220;-80
2021/01/12 07:08:31;;;;;;;56.90;29.37;;;-1.70;87.00;;;;;;5086494;28;20252;-81
2021/01/12 07:11:03;;;;;;;56.90;31.63;;;-1.60;87.00;;;;;;5090027;28;20200;-82
2021/01/12 07:13:39;;;;;;;49.03;28.57;;;-1.60;87.00;;;;;;5087047;28;20466;-79
2021/01/12 07:16:14;;;;;;;61.67;32.23;;;-1.60;86.90;;;;;;5086123;28;20216;-80
2021/01/12 07:18:44;;;;;;;53.83;28.27;;;-1.50;86.90;;;;;;5072666;28;20216;-80
2021/01/12 07:21:13;;;;;;;56.47;31.00;;;-1.60;86.80;;;;;;5073736;27;20289;-80
2021/01/12 07:23:44;;;;;;;56.47;30.63;;;-1.50;86.90;;;;;;5069675;27;20187;-81
2021/01/12 07:26:17;;;;;;;54.80;30.30;;;-1.50;86.80;;;;;;5072771;28;20239;-81
2021/01/12 07:28:46;;;;;;;58.80;32.70;;;-1.50;86.60;;;;;;5080734;28;20241;-80
2021/01/12 07:31:13;;;;;;;57.13;30.20;;;-1.40;86.50;;;;;;5071802;27;20251;-80
2021/01/12 07:33:42;;;;;;;52.90;30.20;;;-1.40;86.40;;;;;;5083458;27;20600;-81
2021/01/12 07:36:13;;;;;;;54.23;31.30;;;-1.30;86.50;;;;;;5075268;27;20908;-79
2021/01/12 07:38:40;;;;;;;60.17;30.83;;;-1.40;86.20;;;;;;5077518;28;20195;-79
2021/01/12 07:41:08;;;;;;;60.33;30.63;;;-1.30;86.40;;;;;;5087466;28;20200;-80
2021/01/12 07:43:36;;;;;;;52.00;30.57;;;-1.30;86.30;;;;;;5099930;27;20201;-80
2021/01/12 07:46:04;;;;;;;50.23;30.27;;;-1.20;86.30;;;;;;5082390;28;20388;-81
2021/01/12 07:48:33;;;;;;;52.67;29.00;;;-1.20;86.00;;;;;;5076169;27;20227;-80
2021/01/12 07:51:02;;;;;;;52.30;29.17;;;-1.10;85.90;;;;;;5069403;27;20594;-81
2021/01/12 07:53:31;;;;;;;49.60;27.30;;;-1.10;85.80;;;;;;5072048;28;20209;-80
2021/01/12 07:56:00;;;;;;;53.47;28.67;;;-1.10;85.80;;;;;;5072752;28;20219;-80
2021/01/12 07:58:28;;;;;;;53.30;27.70;;;-1.10;85.70;;;;;;5074647;27;20204;-80
2021/01/12 08:00:58;;;;;;;48.23;26.33;;;-1.10;85.80;;;;;;5076162;28;20204;-80
2021/01/12 08:03:36;;;;;;;52.03;29.17;;;-1.00;85.60;;;;;;5075343;28;20572;-81
2021/01/12 08:06:05;;;;;;;54.40;27.47;;;-1.00;85.60;;;;;;5078014;28;20229;-79
2021/01/12 08:08:33;;;;;;;49.60;27.40;;;-1.00;85.40;;;;;;5071987;28;20307;-81
2021/01/12 08:11:02;;;;;;;50.07;28.40;;;-0.80;85.30;;;;;;5076280;27;20288;-80
2021/01/12 08:13:30;;;;;;;53.00;28.23;;;-0.80;85.10;;;;;;5073541;28;20205;-82
2021/01/12 08:15:58;;;;;;;52.03;27.37;;;-0.80;85.00;;;;;;5074407;28;20747;-82
2021/01/12 08:18:33;;;;;;;49.43;25.17;;;-0.80;85.20;;;;;;5078177;28;20220;-84
2021/01/12 08:21:01;;;;;;;51.57;27.03;;;-0.60;84.80;;;;;;5085976;28;20214;-81
2021/01/12 08:23:30;;;;;;;45.87;25.60;;;-0.70;84.80;;;;;;5082633;28;20376;-81
2021/01/12 08:26:00;;;;;;;50.53;27.37;;;-0.70;84.60;;;;;;5082247;27;20451;-82
2021/01/12 08:28:28;;;;;;;48.77;26.07;;;-0.70;84.50;;;;;;5076639;28;20470;-80
2021/01/12 08:30:56;;;;;;;47.73;26.50;;;-0.70;84.50;;;;;;5084416;28;20197;-82
2021/01/12 08:33:27;;;;;;;46.07;27.17;;;-0.60;84.40;;;;;;5081730;27;20278;-82
2021/01/12 08:36:01;;;;;;;45.47;25.37;;;-0.50;84.60;;;;;;5089186;27;20500;-81
2021/01/12 08:38:34;;;;;;;48.00;25.87;;;-0.50;84.40;;;;;;5075797;28;20505;-81
2021/01/12 08:41:06;;;;;;;46.03;25.27;;;-0.50;84.20;;;;;;5085440;28;20572;-81
2021/01/12 08:43:34;;;;;;;47.93;25.73;;;-0.40;84.30;;;;;;5096586;28;20577;-82
2021/01/12 08:46:06;;;;;;;45.33;26.07;;;-0.40;84.20;;;;;;5079254;27;20492;-81
2021/01/12 08:48:34;;;;;;;43.03;24.77;;;-0.40;84.10;;;;;;5071239;27;20229;-81
2021/01/12 08:51:13;;;;;;;44.20;25.10;;;-0.30;84.00;;;;;;5079655;28;20199;-81
2021/01/12 08:53:46;;;;;;;44.47;27.27;;;-0.40;83.90;;;;;;5078827;27;20564;-82
2021/01/12 08:56:14;;;;;;;46.10;25.37;;;-0.30;83.80;;;;;;5084002;28;20284;-81
2021/01/12 08:58:42;;;;;;;42.80;25.23;;;-0.30;83.90;;;;;;5086969;28;20204;-81
2021/01/12 09:01:14;;;;;;;45.00;24.90;;;-0.20;83.50;;;;;;5095807;28;20196;-82
2021/01/12 09:03:43;;;;;;;47.63;24.37;;;-0.20;83.50;;;;;;5097493;27;20372;-82
2021/01/12 09:06:18;;;;;;;42.87;22.80;;;-0.10;83.50;;;;;;5099462;28;20236;-80
2021/01/12 09:08:47;;;;;;;41.77;23.30;;;0.00;83.30;;;;;;5099557;28;20196;-81
2021/01/12 09:11:16;;;;;;;42.50;23.93;;;0.10;83.10;;;;;;5105682;27;20406;-83
2021/01/12 09:13:45;;;;;;;43.57;23.03;;;0.10;83.00;;;;;;5107998;28;20202;-82
2021/01/12 09:16:19;;;;;;;44.40;24.40;;;0.20;83.00;;;;;;5104464;28;20233;-82
2021/01/12 09:18:47;;;;;;;39.30;22.87;;;0.20;82.80;;;;;;5103062;28;20447;-82
2021/01/12 09:21:14;;;;;;;43.00;23.67;;;0.30;82.70;;;;;;5088097;28;20209;-80
2021/01/12 09:23:42;;;;;;;39.73;21.97;;;0.30;83.00;;;;;;5084076;27;20207;-83
2021/01/12 09:26:11;;;;;;;36.70;21.77;;;0.40;82.70;;;;;;5101924;27;20506;-79
2021/01/12 09:28:41;;;;;;;40.30;23.10;;;0.40;82.20;;;;;;5091624;27;21478;-80
2021/01/12 09:31:11;;;;;;;37.50;21.33;;;0.50;82.50;;;;;;5067634;28;20524;-81
2021/01/12 09:33:50;;;;;;;41.00;22.53;;;0.50;82.20;;;;;;5084534;28;20264;-81
2021/01/12 09:36:20;;;;;;;34.23;20.33;;;0.50;82.20;;;;;;5087215;28;20440;-81
2021/01/12 09:38:50;;;;;;;35.70;21.53;;;0.60;82.30;;;;;;5081163;28;20202;-82
2021/01/12 09:41:26;;;;;;;35.37;20.03;;;0.60;82.10;;;;;;5079189;28;20686;-82
2021/01/12 09:43:54;;;;;;;36.30;20.57;;;0.60;82.00;;;;;;5074231;28;20511;-82
2021/01/12 09:46:22;;;;;;;31.87;19.07;;;0.70;81.90;;;;;;5076087;28;20466;-81
2021/01/12 09:48:50;;;;;;;35.17;19.97;;;0.80;82.00;;;;;;5076578;28;20514;-83
2021/01/12 09:51:18;;;;;;;37.00;19.60;;;0.90;82.00;;;;;;5086584;27;20210;-82
2021/01/12 09:53:47;;;;;;;37.37;20.00;;;0.90;81.80;;;;;;5087083;28;20655;-81
2021/01/12 09:56:16;;;;;;;33.60;20.37;;;0.90;81.70;;;;;;5097353;28;20497;-81
2021/01/12 09:58:45;;;;;;;31.60;18.33;;;1.00;81.70;;;;;;5082026;28;20237;-81
2021/01/12 10:01:13;;;;;;;30.93;17.40;;;1.00;81.70;;;;;;5080431;27;20231;-81
2021/01/12 10:03:45;;;;;;;31.50;17.83;;;1.10;81.30;;;;;;5071535;28;20303;-83
2021/01/12 10:06:17;;;;;;;30.33;17.57;;;1.20;81.20;;;;;;5083310;28;20235;-80
2021/01/12 10:08:46;;;;;;;26.13;17.20;;;1.20;81.30;;;;;;5076471;28;20200;-83
2021/01/12 10:11:15;;;;;;;30.13;16.90;;;1.30;81.10;;;;;;5077501;28;20400;-82
2021/01/12 10:13:45;;;;;;;26.93;17.33;;;1.30;80.80;;;;;;5084360;28;20642;-81
2021/01/12 10:16:20;;;;;;;27.63;16.93;;;1.30;80.80;;;;;;5075586;28;20200;-82
2021/01/12 10:18:49;;;;;;;32.63;17.47;;;1.30;80.90;;;;;;5076442;28;20226;-82
2021/01/12 10:21:17;;;;;;;30.17;17.37;;;1.30;80.90;;;;;;5086191;27;20204;-82
2021/01/12 10:23:45;;;;;;;27.80;16.93;;;1.40;80.90;;;;;;5074980;28;20215;-81
2021/01/12 10:26:14;;;;;;;31.13;17.73;;;1.50;80.60;;;;;;5079352;28;21460;-82
2021/01/12 10:28:42;;;;;;;26.90;15.33;;;1.70;80.50;;;;;;5073421;27;20220;-81
2021/01/12 10:31:14;;;;;;;31.30;16.83;;;1.40;80.30;;;;;;5079350;28;20228;-81
2021/01/12 10:33:43;;;;;;;27.17;16.33;;;1.50;80.60;;;;;;5092616;28;20213;-84
2021/01/12 10:36:13;;;;;;;26.23;15.87;;;1.50;80.50;;;;;;5100521;27;20272;-79
2021/01/12 10:38:41;;;;;;;29.07;16.17;;;1.50;80.40;;;;;;5089290;28;20205;-80
2021/01/12 10:41:09;;;;;;;34.17;16.33;;;1.50;80.60;;;;;;5076148;28;20243;-81
2021/01/12 10:43:38;;;;;;;28.70;16.20;;;1.50;80.70;;;;;;5080311;28;20204;-81
2021/01/12 10:46:06;;;;;;;28.57;17.03;;;1.60;80.60;;;;;;5077894;28;20305;-81
2021/01/12 10:48:35;;;;;;;33.30;17.53;;;1.60;80.70;;;;;;5096096;27;20205;-80
2021/01/12 10:51:03;;;;;;;28.73;15.70;;;1.70;80.50;;;;;;5073537;28;20210;-81
2021/01/12 10:53:33;;;;;;;27.93;17.20;;;1.70;80.50;;;;;;5081620;28;20200;-81
2021/01/12 10:56:01;;;;;;;28.80;16.67;;;1.70;80.40;;;;;;5075159;28;20378;-79
2021/01/12 10:58:30;;;;;;;29.00;16.30;;;1.70;80.40;;;;;;5075504;28;20435;-82
2021/01/12 11:01:01;;;;;;;28.83;17.07;;;1.80;80.30;;;;;;5072868;28;20320;-80
2021/01/12 11:03:29;;;;;;;30.70;16.67;;;1.70;80.50;;;;;;5085795;28;20613;-81
2021/01/12 11:05:58;;;;;;;31.10;17.07;;;2.00;80.40;;;;;;5078939;28;20215;-81
2021/01/12 11:08:27;;;;;;;27.97;15.60;;;1.80;80.30;;;;;;5080309;28;20215;-80
2021/01/12 11:10:55;;;;;;;30.03;16.60;;;1.80;80.20;;;;;;5083277;28;20265;-83
2021/01/12 11:13:23;;;;;;;26.73;16.27;;;1.80;80.20;;;;;;5081662;28;20298;-82
2021/01/12 11:15:50;;;;;;;28.23;16.63;;;1.80;79.90;;;;;;5077327;28;20959;-81
2021/01/12 11:18:18;;;;;;;29.47;16.57;;;1.80;80.10;;;;;;5074999;28;20204;-82
2021/01/12 11:20:46;;;;;;;29.33;16.93;;;1.90;80.30;;;;;;5085053;28;20494;-82
2021/01/12 11:23:15;;;;;;;28.07;16.90;;;1.90;79.80;;;;;;5085475;28;20557;-82
2021/01/12 11:25:43;;;;;;;29.53;17.53;;;1.80;80.10;;;;;;5091570;28;20224;-81
2021/01/12 11:28:10;;;;;;;29.83;16.73;;;1.80;80.20;;;;;;5075502;28;20400;-82
2021/01/12 11:30:38;;;;;;;31.70;18.70;;;1.80;80.20;;;;;;5074364;28;20303;-83
2021/01/12 11:33:07;;;;;;;27.20;17.50;;;1.90;80.10;;;;;;5073358;27;20200;-81
2021/01/12 11:35:35;;;;;;;29.53;17.97;;;1.90;80.20;;;;;;5073610;28;20196;-80
2021/01/12 11:38:03;;;;;;;31.90;17.90;;;1.90;80.00;;;;;;5069461;28;20630;-81
2021/01/12 11:40:32;;;;;;;29.47;17.07;;;1.90;80.10;;;;;;5082459;27;20200;-82
2021/01/12 11:42:59;;;;;;;29.37;17.20;;;1.80;80.10;;;;;;5096647;28;20200;-82
2021/01/12 11:45:27;;;;;;;29.43;17.03;;;1.80;80.20;;;;;;5082124;28;20273;-80
2021/01/12 11:47:55;;;;;;;28.73;16.27;;;1.80;80.20;;;;;;5073685;27;20216;-81
2021/01/12 11:50:22;;;;;;;30.00;18.10;;;1.70;80.30;;;;;;5080430;28;20204;-82
2021/01/12 11:52:56;;;;;;;29.50;17.60;;;1.70;80.40;;;;;;5081130;28;20449;-80
2021/01/12 11:55:23;;;;;;;31.33;17.57;;;1.70;80.30;;;;;;5073362;28;20452;-80
2021/01/12 11:57:52;;;;;;;27.27;16.47;;;1.70;80.40;;;;;;5080095;28;20668;-82
2021/01/12 12:00:20;;;;;;;28.73;16.40;;;1.80;80.40;;;;;;5095875;28;20276;-82
2021/01/12 12:02:47;;;;;;;28.57;16.43;;;1.80;80.30;;;;;;5107518;27;20364;-82
2021/01/12 12:05:15;;;;;;;29.30;17.30;;;1.80;80.40;;;;;;5071565;28;20656;-81
2021/01/12 12:07:45;;;;;;;30.07;17.47;;;1.80;80.50;;;;;;5080629;28;20677;-81
2021/01/12 12:10:13;;;;;;;29.43;16.87;;;1.80;80.70;;;;;;5080943;27;20207;-82
2021/01/12 12:12:41;;;;;;;28.97;16.37;;;1.70;80.60;;;;;;5073945;28;20205;-81
2021/01/12 12:15:12;;;;;;;27.77;17.60;;;1.80;80.60;;;;;;5074177;28;20988;-79
2021/01/12 12:17:44;;;;;;;27.27;16.23;;;1.80;80.80;;;;;;5067197;28;20208;-83
2021/01/12 12:20:14;;;;;;;28.83;16.57;;;1.90;80.70;;;;;;5055962;27;20470;-81
2021/01/12 12:22:42;;;;;;;29.93;17.23;;;1.80;80.60;;;;;;5067581;28;20204;-79
2021/01/12 12:25:10;;;;;;;28.50;16.03;;;1.90;80.60;;;;;;5065953;28;20220;-79
2021/01/12 12:27:38;;;;;;;29.40;16.53;;;1.80;80.60;;;;;;5066825;28;20223;-81
2021/01/12 12:30:07;;;;;;;30.57;17.33;;;1.80;80.70;;;;;;5065930;28;20209;-82
2021/01/12 12:32:36;;;;;;;26.43;15.63;;;1.80;80.50;;;;;;5065445;28;20877;-79
2021/01/12 12:35:04;;;;;;;26.27;16.17;;;1.90;80.70;;;;;;5087347;28;20377;-80
2021/01/12 12:37:32;;;;;;;30.13;17.17;;;1.90;80.80;;;;;;5070499;27;20503;-79
2021/01/12 12:39:59;;;;;;;29.40;16.63;;;1.90;80.70;;;;;;5069295;28;20207;-82